Terminal Aerodrome Forecast
Issued by NWS

Home | Current Version | Previous Version | Text Only | Print | Product List | Glossary Off
Versions: 1 2 3 4 5 6 7 8 9 10 11 12 13 14 15 16 17 18 19 20 21 22 23 24 25 26 27 28 29 30 31 32 33 34

303
FTUS43 KGRB 261720
TAFRHI
TAF
KRHI 261720Z 2618/2718 25010KT P6SM FEW045 SCT090
     FM262000 24008KT P6SM VCTS SCT050CB BKN100
     FM262300 25004KT P6SM SCT100 BKN250
     FM270200 VRB03KT P6SM SCT050 OVC100 PROB30 2703/2708 5SM -SHRA
      BR BKN050
     FM270800 VRB02KT 5SM -SHRA BR OVC050
     FM271400 29003KT P6SM VCSH OVC040=

USA.gov is the U.S. government's official web portal to all federal, state and local government web resources and services.